Time;durP1;ratioP1;P1;durP2;ratioP2;P2;SDS_P1;SDS_P2;PMS_P1;PMS_P2;Temp;Humidity;BMP_temperature;BMP_pressure;BME280_temperature;BME280_humidity;BME280_pressure;Samples;Min_cycle;Max_cycle;Signal;HPM_P1;HPM_P2
2022/10/02 00:00:25;;;;;;;31.20;5.75;;;;;;;11.70;100.00;101152.88;1977423;28;20558;-81
2022/10/02 00:01:35;;;;;;;27.52;5.45;;;;;;;11.64;100.00;101147.91;1972603;28;20742;-83
2022/10/02 00:02:41;;;;;;;28.05;5.10;;;;;;;11.65;100.00;101159.22;1977936;28;20041;-81
2022/10/02 00:03:42;;;;;;;30.92;6.05;;;;;;;11.66;100.00;101160.91;1977570;28;20060;-82
2022/10/02 00:05:05;;;;;;;37.05;6.55;;;;;;;11.65;100.00;101164.44;1984920;28;20064;-83
2022/10/02 00:06:13;;;;;;;25.65;5.10;;;;;;;11.65;100.00;101165.28;1985413;28;20122;-83
2022/10/02 00:07:14;;;;;;;33.47;6.10;;;;;;;11.69;100.00;101160.78;1985299;28;20090;-85
2022/10/02 00:08:24;;;;;;;;;;;;;;;11.71;100.00;101169.41;1986188;28;20073;-83
2022/10/02 00:09:31;;;;;;;20.50;5.00;;;;;;;11.69;100.00;101166.00;1985246;28;19928;-82
2022/10/02 00:10:44;;;;;;;29.20;5.40;;;;;;;11.65;100.00;101165.28;1985129;28;20025;-82
2022/10/02 00:11:47;;;;;;;24.05;4.82;;;;;;;11.67;100.00;101160.84;1972448;28;20036;-84
2022/10/02 00:12:51;;;;;;;31.00;4.80;;;;;;;11.70;100.00;101165.09;1976868;28;20017;-84
2022/10/02 00:13:57;;;;;;;32.25;5.93;;;;;;;11.75;100.00;101171.00;1977217;28;20080;-82
2022/10/02 00:15:13;;;;;;;21.40;5.45;;;;;;;11.77;100.00;101171.75;1985011;28;20036;-83
2022/10/02 00:16:36;;;;;;;35.78;5.55;;;;;;;11.77;100.00;101168.31;1985109;28;20029;-81
2022/10/02 00:17:41;;;;;;;28.02;5.45;;;;;;;11.75;100.00;101168.38;1979784;28;20172;-81
2022/10/02 00:18:40;;;;;;;30.13;5.20;;;;;;;11.78;100.00;101180.47;1977506;28;20071;-81
2022/10/02 00:19:37;;;;;;;29.13;5.63;;;;;;;11.77;100.00;101168.31;1977029;28;20048;-82
2022/10/02 00:21:21;;;;;;;29.92;5.15;;;;;;;11.79;100.00;101172.56;1984507;28;20047;-82
2022/10/02 00:22:37;;;;;;;30.90;5.25;;;;;;;11.78;100.00;101175.22;1985098;28;20029;-81
2022/10/02 00:23:50;;;;;;;28.10;5.50;;;;;;;11.82;100.00;101182.03;1978749;28;20040;-80
2022/10/02 00:25:13;;;;;;;27.48;5.60;;;;;;;11.82;100.00;101190.75;1985267;28;20032;-82
2022/10/02 00:26:54;;;;;;;38.47;6.13;;;;;;;11.84;100.00;101181.03;1985001;28;20538;-83
2022/10/02 00:28:09;;;;;;;;;;;;;;;11.84;100.00;101183.66;1981548;28;20032;-82
2022/10/02 00:29:35;;;;;;;25.48;5.30;;;;;;;11.80;100.00;101179.47;1978760;28;20359;-84
2022/10/02 00:30:54;;;;;;;31.00;5.35;;;;;;;11.81;100.00;101180.34;1987893;28;20024;-85
2022/10/02 00:32:30;;;;;;;29.45;5.78;;;;;;;11.83;100.00;101187.19;1984795;28;20056;-82
2022/10/02 00:34:20;;;;;;;35.20;5.78;;;;;;;11.89;100.00;101187.84;1979801;28;20045;-85
2022/10/02 00:36:00;;;;;;;22.40;4.78;;;;;;;11.93;100.00;101186.78;1984657;28;20553;-83
2022/10/02 00:37:24;;;;;;;34.60;5.50;;;;;;;11.93;100.00;101189.41;1981711;28;20017;-83
2022/10/02 00:38:38;;;;;;;25.95;5.05;;;;;;;11.92;100.00;101187.72;1979452;28;20043;-84
2022/10/02 00:40:26;;;;;;;31.58;5.22;;;;;;;11.92;100.00;101192.94;1978227;28;20037;-83
2022/10/02 00:42:00;;;;;;;24.08;5.40;;;;;;;11.96;100.00;101190.16;1982739;28;20045;-83
2022/10/02 00:43:25;;;;;;;32.08;5.25;;;;;;;11.95;100.00;101188.44;1981124;28;20372;-81
2022/10/02 00:44:53;;;;;;;27.83;5.20;;;;;;;11.97;100.00;101196.22;1987412;28;20481;-82
2022/10/02 00:46:39;;;;;;;37.90;5.35;;;;;;;11.97;100.00;101190.97;1984841;28;20521;-83
2022/10/02 00:48:02;;;;;;;22.60;5.13;;;;;;;11.97;100.00;101193.59;1951317;28;20057;-82
2022/10/02 00:49:42;;;;;;;29.52;5.63;;;;;;;11.94;100.00;101189.34;1945598;29;20035;-82
2022/10/02 00:51:04;;;;;;;;;;;;;;;11.91;100.00;101192.09;1981993;28;20036;-83
2022/10/02 00:52:38;;;;;;;36.50;5.78;;;;;;;11.83;100.00;101188.94;1987315;28;20421;-82
2022/10/02 00:54:07;;;;;;;33.03;5.63;;;;;;;11.83;100.00;101191.56;1984776;28;20029;-83
2022/10/02 00:55:51;;;;;;;38.45;5.75;;;;;;;11.83;100.00;101184.59;1975760;28;20059;-81
2022/10/02 00:57:04;;;;;;;37.80;5.63;;;;;;;11.82;100.00;101188.13;1982339;28;20023;-82
2022/10/02 00:58:12;;;;;;;38.30;5.82;;;;;;;11.82;100.00;101188.13;1984767;28;20037;-82
2022/10/02 00:59:50;;;;;;;34.08;5.97;;;;;;;11.87;100.00;101192.31;1984587;28;20701;-83
2022/10/02 01:01:10;;;;;;;30.67;5.00;;;;;;;11.91;100.00;101184.25;1981417;28;20044;-83
2022/10/02 01:02:39;;;;;;;33.58;5.10;;;;;;;11.89;100.00;101188.72;1979309;28;20049;-81
2022/10/02 01:03:40;;;;;;;30.73;5.60;;;;;;;11.87;100.00;101192.31;1984686;28;20025;-82
2022/10/02 01:04:40;;;;;;;33.67;5.70;;;;;;;11.87;100.00;101189.69;1976830;28;20560;-82
2022/10/02 01:05:38;;;;;;;35.60;5.85;;;;;;;11.91;100.00;101186.84;1968938;28;20074;-81
2022/10/02 01:06:36;;;;;;;37.45;5.93;;;;;;;11.91;100.00;101191.25;1968792;28;20040;-84
2022/10/02 01:07:41;;;;;;;35.25;5.72;;;;;;;11.90;100.00;101190.41;1967034;28;20428;-82
2022/10/02 01:08:39;;;;;;;28.88;5.28;;;;;;;11.91;100.00;101196.50;1969361;28;20445;-83
2022/10/02 01:09:39;;;;;;;32.03;5.38;;;;;;;11.99;100.00;101199.63;1970982;28;20415;-83
2022/10/02 01:10:38;;;;;;;29.00;5.18;;;;;;;12.01;100.00;101203.00;1984228;28;20048;-82
2022/10/02 01:11:37;;;;;;;29.52;5.22;;;;;;;12.01;100.00;101197.78;1969279;28;20034;-82
2022/10/02 01:12:36;;;;;;;30.75;5.50;;;;;;;12.00;100.00;101196.09;1968998;28;20080;-83
2022/10/02 01:13:34;;;;;;;31.83;5.85;;;;;;;11.98;100.00;101203.16;1968440;28;20133;-84
2022/10/02 01:14:38;;;;;;;29.10;5.15;;;;;;;12.01;100.00;101202.19;1968642;28;20091;-84
2022/10/02 01:15:42;;;;;;;38.08;5.78;;;;;;;11.99;100.00;101202.25;1968967;28;20030;-82
2022/10/02 01:16:43;;;;;;;34.95;6.35;;;;;;;11.99;100.00;101204.84;1977028;28;20033;-84
2022/10/02 01:17:41;;;;;;;36.45;5.63;;;;;;;12.01;100.00;101197.78;1976737;28;20444;-83
2022/10/02 01:18:44;;;;;;;39.22;6.00;;;;;;;12.13;100.00;101200.81;1976790;28;20029;-83
2022/10/02 01:19:42;;;;;;;31.40;6.13;;;;;;;12.12;100.00;101196.50;1976617;28;20040;-83
2022/10/02 01:20:45;;;;;;;35.58;6.50;;;;;;;12.16;100.00;101200.69;1984488;28;20054;-81
2022/10/02 01:21:50;;;;;;;32.35;5.28;;;;;;;12.15;100.00;101196.38;1968852;28;20021;-83
2022/10/02 01:23:21;;;;;;;40.70;5.90;;;;;;;12.15;100.00;101191.97;1969473;28;20044;-82
2022/10/02 01:24:26;;;;;;;34.25;5.97;;;;;;;12.17;100.00;101195.41;1980437;28;20404;-82
2022/10/02 01:25:23;;;;;;;36.88;5.32;;;;;;;12.14;100.00;101187.66;1976786;28;20076;-83
2022/10/02 01:26:21;;;;;;;32.53;5.65;;;;;;;12.22;100.00;101189.97;1968785;28;20037;-82
2022/10/02 01:27:19;;;;;;;32.92;5.45;;;;;;;12.17;100.00;101189.28;1968418;28;20059;-82
2022/10/02 01:28:18;;;;;;;32.58;5.35;;;;;;;12.19;100.00;101195.31;1975795;28;20033;-81
2022/10/02 01:29:15;;;;;;;35.08;6.20;;;;;;;12.22;100.00;101192.59;1976805;28;20037;-80
2022/10/02 01:30:18;;;;;;;34.25;5.32;;;;;;;12.26;100.00;101186.28;1969027;28;20443;-83
2022/10/02 01:31:16;;;;;;;32.50;5.40;;;;;;;12.24;100.00;101182.88;1968841;28;20499;-83
2022/10/02 01:32:15;;;;;;;38.00;5.45;;;;;;;12.22;100.00;101185.56;1976852;28;20037;-82
2022/10/02 01:33:16;;;;;;;38.38;6.55;;;;;;;12.25;100.00;101184.56;1976142;28;20064;-81
2022/10/02 01:34:14;;;;;;;34.78;5.60;;;;;;;12.21;100.00;101183.88;1968617;28;20476;-81
2022/10/02 01:35:11;;;;;;;31.13;6.20;;;;;;;12.28;100.00;101181.84;1976397;28;20378;-84
2022/10/02 01:36:12;;;;;;;45.42;6.22;;;;;;;12.26;100.00;101186.28;1976398;28;20414;-82
2022/10/02 01:37:11;;;;;;;39.75;6.03;;;;;;;12.23;100.00;101181.19;1978394;28;20038;-81
2022/10/02 01:38:17;;;;;;;44.00;6.32;;;;;;;12.24;100.00;101188.13;1970478;28;20060;-83
2022/10/02 01:39:15;;;;;;;37.22;5.35;;;;;;;12.20;100.00;101190.03;1970933;28;20588;-82
2022/10/02 01:40:27;;;;;;;35.35;5.80;;;;;;;12.21;100.00;101190.88;1978466;28;20474;-84
2022/10/02 01:41:25;;;;;;;32.33;5.18;;;;;;;12.17;100.00;101189.28;1978375;28;20044;-82
2022/10/02 01:42:22;;;;;;;34.42;6.30;;;;;;;12.18;100.00;101188.41;1970455;28;20049;-81
2022/10/02 01:43:33;;;;;;;34.55;6.00;;;;;;;12.25;100.00;101195.03;1977560;28;20034;-81
2022/10/02 01:44:31;;;;;;;35.72;5.55;;;;;;;12.26;100.00;101190.66;1978163;28;20043;-81
2022/10/02 01:46:23;;;;;;;37.55;6.07;;;;;;;12.34;100.00;101193.78;1978132;28;20029;-82
2022/10/02 01:47:56;;;;;;;33.25;5.78;;;;;;;12.34;100.00;101192.03;1986172;28;20033;-83
2022/10/02 01:49:11;;;;;;;35.60;6.13;;;;;;;12.31;100.00;101196.53;1977979;28;20186;-82
2022/10/02 01:50:32;;;;;;;43.05;5.78;;;;;;;12.29;100.00;101188.78;1979601;28;20396;-83
2022/10/02 01:51:52;;;;;;;30.13;6.13;;;;;;;12.31;100.00;101193.94;1983444;28;20060;-81
2022/10/02 01:53:10;;;;;;;37.85;6.05;;;;;;;12.34;100.00;101199.03;1980249;28;20387;-84
2022/10/02 01:54:40;;;;;;;35.35;5.47;;;;;;;12.34;100.00;101194.66;1978287;28;20291;-81
2022/10/02 01:56:12;;;;;;;39.50;5.50;;;;;;;12.31;100.00;101189.56;1977077;28;20044;-82
2022/10/02 01:57:29;;;;;;;33.80;5.82;;;;;;;12.31;100.00;101193.94;1978022;28;20052;-80
2022/10/02 01:58:57;;;;;;;36.88;5.13;;;;;;;12.29;100.00;101194.03;1980037;28;20088;-83
2022/10/02 02:00:17;;;;;;;35.50;5.72;;;;;;;12.26;100.00;101188.91;1977975;28;20071;-82
2022/10/02 02:01:23;;;;;;;;;;;;;;;12.30;100.00;101192.22;1972822;28;20045;-81
2022/10/02 02:02:40;;;;;;;29.95;4.80;;;;;;;12.40;100.00;101193.53;1978448;28;19956;-81
2022/10/02 02:03:53;;;;;;;36.85;6.13;;;;;;;12.38;100.00;101189.28;1978137;28;20444;-82
2022/10/02 02:05:21;;;;;;;35.38;5.07;;;;;;;12.38;100.00;101189.28;1971400;28;20045;-83
2022/10/02 02:06:54;;;;;;;31.95;5.47;;;;;;;12.41;100.00;101189.13;1970361;28;20066;-85
2022/10/02 02:08:19;;;;;;;33.10;5.72;;;;;;;12.47;100.00;101194.09;1970693;28;20037;-82
2022/10/02 02:09:43;;;;;;;44.45;6.20;;;;;;;12.46;100.00;101193.25;1970585;28;20066;-83
2022/10/02 02:11:08;;;;;;;39.78;5.35;;;;;;;12.45;100.00;101190.69;1973540;28;20517;-82
2022/10/02 02:12:21;;;;;;;23.42;5.20;;;;;;;12.46;100.00;101192.41;1970405;28;20400;-82
2022/10/02 02:13:48;;;;;;;34.22;5.53;;;;;;;12.46;100.00;101192.41;1971932;28;20045;-82
2022/10/02 02:15:05;;;;;;;39.97;6.05;;;;;;;12.45;100.00;101198.53;1978476;28;20697;-81
2022/10/02 02:16:15;;;;;;;33.80;5.60;;;;;;;12.48;100.00;101190.56;1970454;28;20026;-87
2022/10/02 02:17:45;;;;;;;29.70;5.18;;;;;;;12.51;100.00;101193.03;1971198;28;20045;-83
2022/10/02 02:18:56;;;;;;;42.15;6.18;;;;;;;12.51;100.00;101189.56;1970440;28;20338;-82
2022/10/02 02:20:16;;;;;;;38.88;5.65;;;;;;;12.52;100.00;101186.06;1970127;28;20064;-82
2022/10/02 02:21:29;;;;;;;43.83;6.25;;;;;;;12.51;100.00;101190.44;1970407;28;20460;-83
2022/10/02 02:22:39;;;;;;;34.65;5.57;;;;;;;12.52;100.00;101194.75;1963632;28;20056;-82
2022/10/02 02:23:42;;;;;;;36.33;5.88;;;;;;;12.54;100.00;101197.28;1960366;28;20172;-83
2022/10/02 02:24:48;;;;;;;41.70;6.45;;;;;;;12.52;100.00;101194.75;1970274;28;20033;-83
2022/10/02 02:25:53;;;;;;;35.42;5.88;;;;;;;12.54;100.00;101200.78;1970632;28;20478;-82
2022/10/02 02:26:57;;;;;;;30.20;5.68;;;;;;;12.55;100.00;101192.00;1970507;28;20030;-82
2022/10/02 02:28:05;;;;;;;39.88;5.88;;;;;;;12.57;100.00;101205.88;1970436;28;20045;-82
2022/10/02 02:29:08;;;;;;;28.48;5.15;;;;;;;12.55;100.00;101199.84;1962860;28;20071;-82
2022/10/02 02:30:10;;;;;;;30.45;5.80;;;;;;;12.56;100.00;101198.91;1970363;28;20118;-83
2022/10/02 02:31:15;;;;;;;27.73;5.53;;;;;;;12.60;100.00;101200.47;1969733;28;20034;-83
2022/10/02 02:32:21;;;;;;;21.95;4.72;;;;;;;12.59;100.00;101192.72;1962589;28;20034;-82
2022/10/02 02:33:32;;;;;;;31.33;5.82;;;;;;;12.64;100.00;101189.88;1970372;28;20040;-83
2022/10/02 02:34:43;;;;;;;30.25;5.00;;;;;;;12.65;100.00;101199.41;1969733;28;20464;-84
2022/10/02 02:35:47;;;;;;;32.60;5.53;;;;;;;12.69;100.00;101195.75;1962693;28;20058;-83
2022/10/02 02:36:58;;;;;;;27.40;5.93;;;;;;;12.71;100.00;101196.53;1969572;28;20036;-83
2022/10/02 02:38:26;;;;;;;35.33;6.28;;;;;;;12.75;100.00;101196.31;1968970;28;20051;-83
2022/10/02 02:41:40;;;;;;;31.98;5.40;;;;;;;12.71;100.00;101207.00;1969661;28;20045;-84
2022/10/02 02:43:08;;;;;;;31.88;5.22;;;;;;;12.67;100.00;101193.22;1969372;28;20018;-84
2022/10/02 02:44:40;;;;;;;26.15;5.18;;;;;;;12.67;100.00;101189.72;1964081;28;20069;-84
2022/10/02 02:46:13;;;;;;;30.42;5.32;;;;;;;12.66;100.00;101180.19;1962885;28;20464;-82
2022/10/02 02:48:04;;;;;;;24.98;5.00;;;;;;;12.72;100.00;101187.75;1965275;28;20077;-83
2022/10/02 02:49:11;;;;;;;24.42;5.30;;;;;;;12.62;100.00;101188.19;1964325;28;20041;-85
2022/10/02 02:50:43;;;;;;;30.35;5.32;;;;;;;12.59;100.00;101187.47;1961793;28;20049;-83
2022/10/02 02:52:02;;;;;;;26.05;5.68;;;;;;;12.55;100.00;101192.00;1973549;28;20038;-85
2022/10/02 02:53:14;;;;;;;28.33;6.05;;;;;;;12.53;100.00;101190.38;1975250;28;20526;-84
2022/10/02 02:54:23;;;;;;;27.67;5.70;;;;;;;12.52;100.00;101194.75;1968001;28;20124;-83
2022/10/02 02:55:36;;;;;;;31.38;6.30;;;;;;;12.52;100.00;101194.75;1962578;28;20503;-83
2022/10/02 02:57:31;;;;;;;23.90;5.43;;;;;;;12.52;100.00;101197.34;1962293;28;20042;-85
2022/10/02 02:59:00;;;;;;;21.83;5.30;;;;;;;12.51;100.00;101202.66;1969265;28;20471;-85
2022/10/02 03:02:39;;;;;;;23.63;4.38;;;;;;;12.33;100.00;101208.66;1945994;28;20038;-83
2022/10/02 03:04:19;;;;;;;22.17;4.60;;;;;;;12.28;100.00;101208.00;1960726;28;20479;-83
2022/10/02 03:05:32;;;;;;;15.93;3.33;;;;;;;12.13;100.00;101206.91;1951170;28;20043;-84
2022/10/02 03:07:19;;;;;;;11.30;3.00;;;;;;;12.12;100.00;101199.13;1968558;28;20063;-84
2022/10/02 03:08:34;;;;;;;11.95;2.75;;;;;;;12.07;100.00;101202.78;1971272;28;20042;-83
2022/10/02 03:10:02;;;;;;;;;;;;;;;;;;;;;
2022/10/02 03:14:00;;;;;;;11.45;3.03;;;;;;;11.89;100.00;101193.06;1973486;28;20395;-85
2022/10/02 03:16:10;;;;;;;11.93;2.60;;;;;;;11.85;100.00;101200.22;1976606;28;20029;-83
2022/10/02 03:17:39;;;;;;;11.68;2.50;;;;;;;11.79;100.00;101188.25;1952179;28;20377;-85
2022/10/02 03:19:04;;;;;;;10.55;2.47;;;;;;;11.76;100.00;101198.81;1945507;29;20041;-84
2022/10/02 03:20:48;;;;;;;12.00;2.70;;;;;;;11.72;100.00;101200.72;1948569;28;20030;-83
2022/10/02 03:22:58;;;;;;;10.35;2.50;;;;;;;11.67;100.00;101200.06;1953193;28;20061;-83
2022/10/02 03:24:41;;;;;;;13.00;2.80;;;;;;;11.65;100.00;101201.91;1945715;29;20128;-86
2022/10/02 03:25:59;;;;;;;10.25;2.60;;;;;;;11.65;100.00;101201.03;1949777;28;20749;-84
2022/10/02 03:27:32;;;;;;;13.30;3.20;;;;;;;11.65;100.00;101198.41;1951084;28;20078;-82
2022/10/02 03:28:54;;;;;;;13.10;3.22;;;;;;;11.66;100.00;101195.75;1952876;28;20046;-83
2022/10/02 03:30:25;;;;;;;12.35;3.42;;;;;;;11.66;100.00;101200.09;1969814;28;20030;-85
2022/10/02 03:31:29;;;;;;;10.05;2.90;;;;;;;11.66;100.00;101207.94;1945972;28;20047;-84
2022/10/02 03:32:37;;;;;;;13.57;3.42;;;;;;;11.66;100.00;101205.34;1968094;28;20077;-82
2022/10/02 03:33:40;;;;;;;13.52;3.47;;;;;;;11.68;100.00;101206.13;1968716;28;20046;-83
2022/10/02 03:35:14;;;;;;;13.27;3.55;;;;;;;11.68;100.00;101196.53;1968837;28;20079;-84
2022/10/02 03:36:19;;;;;;;8.85;3.30;;;;;;;11.65;100.00;101199.28;1976790;28;20030;-82
2022/10/02 03:37:22;;;;;;;13.63;3.80;;;;;;;11.63;100.00;101197.66;1975425;28;20045;-83
2022/10/02 03:38:25;;;;;;;12.35;3.88;;;;;;;11.65;100.00;101201.03;1984359;28;20200;-82
2022/10/02 03:39:32;;;;;;;12.70;4.10;;;;;;;11.66;100.00;101202.72;1976509;28;20040;-85
2022/10/02 03:40:33;;;;;;;15.27;3.83;;;;;;;11.65;100.00;101206.25;1969169;28;20038;-84
2022/10/02 03:41:41;;;;;;;10.35;3.63;;;;;;;11.66;100.00;101202.72;1975915;28;20053;-83
2022/10/02 03:42:50;;;;;;;12.85;3.78;;;;;;;11.65;100.00;101206.25;1969358;28;20052;-82
2022/10/02 03:43:51;;;;;;;15.20;4.30;;;;;;;11.64;100.00;101205.44;1969416;28;20047;-84
2022/10/02 03:44:51;;;;;;;15.48;3.80;;;;;;;11.66;100.00;101207.94;1976423;28;20049;-83
2022/10/02 03:45:55;;;;;;;;;;;;;;;11.62;100.00;101198.53;1984152;28;20033;-82
2022/10/02 03:47:02;;;;;;;9.75;3.55;;;;;;;11.61;100.00;101209.91;1984629;28;19912;-83
2022/10/02 03:48:05;;;;;;;10.95;3.75;;;;;;;11.63;100.00;101202.88;1968898;28;20038;-84
2022/10/02 03:49:11;;;;;;;10.93;3.40;;;;;;;11.59;100.00;101210.84;1968533;28;20334;-82
2022/10/02 03:50:14;;;;;;;18.13;4.10;;;;;;;11.57;100.00;101214.44;1968837;28;20358;-84
2022/10/02 03:51:32;;;;;;;12.25;3.90;;;;;;;11.57;100.00;101215.25;1968509;28;20038;-83
2022/10/02 03:52:36;;;;;;;12.82;3.90;;;;;;;11.53;100.00;101216.31;1970520;28;20033;-84
2022/10/02 03:53:44;;;;;;;13.23;4.15;;;;;;;11.53;100.00;101215.47;1968653;28;20733;-83
2022/10/02 03:54:42;;;;;;;16.35;4.55;;;;;;;11.50;100.00;101218.19;1969414;28;20032;-83
2022/10/02 03:55:49;;;;;;;10.90;4.22;;;;;;;11.49;100.00;101222.56;1968739;28;20041;-84
2022/10/02 03:56:55;;;;;;;17.73;6.20;;;;;;;11.45;100.00;101236.66;1976582;28;20105;-82
2022/10/02 03:57:55;;;;;;;18.92;4.88;;;;;;;11.44;100.00;101238.44;1976569;28;20036;-82
2022/10/02 03:59:02;;;;;;;16.70;5.40;;;;;;;11.40;100.00;101234.22;1968640;28;20092;-83
2022/10/02 04:00:18;;;;;;;15.20;4.75;;;;;;;11.41;100.00;101235.94;1976269;28;20087;-85
2022/10/02 04:01:36;;;;;;;13.10;5.10;;;;;;;11.42;100.00;101226.34;1970150;28;20472;-84
2022/10/02 04:02:53;;;;;;;13.23;4.85;;;;;;;11.44;100.00;101235.84;1970351;28;20036;-84
2022/10/02 04:04:17;;;;;;;17.45;5.90;;;;;;;11.50;100.00;101234.72;1976627;28;20018;-85
2022/10/02 04:05:40;;;;;;;16.13;6.43;;;;;;;11.52;100.00;101217.22;1971198;28;20236;-83
2022/10/02 04:06:45;;;;;;;21.00;9.15;;;;;;;11.61;100.00;101216.00;1971242;28;20450;-84
2022/10/02 04:07:51;;;;;;;30.70;10.75;;;;;;;11.70;100.00;101209.53;1968818;28;20038;-84
2022/10/02 04:09:03;;;;;;;30.02;13.32;;;;;;;11.83;100.00;101230.78;1968897;28;20051;-82
2022/10/02 04:10:20;;;;;;;29.60;11.90;;;;;;;11.80;100.00;101221.31;1970065;28;20124;-85
2022/10/02 04:11:40;;;;;;;20.95;8.38;;;;;;;11.76;100.00;101224.09;1970073;28;20444;-83
2022/10/02 04:12:53;;;;;;;30.73;8.98;;;;;;;11.80;100.00;101216.09;1970794;28;20361;-83
2022/10/02 04:14:34;;;;;;;25.20;9.05;;;;;;;11.89;100.00;101219.22;1969665;28;20032;-85
2022/10/02 04:16:11;;;;;;;27.48;9.52;;;;;;;11.89;100.00;101224.47;1956943;28;20081;-82
2022/10/02 04:17:43;;;;;;;31.60;10.68;;;;;;;11.91;100.00;101217.41;1960155;28;20026;-84
2022/10/02 04:19:12;;;;;;;32.63;11.18;;;;;;;11.93;100.00;101218.19;1973036;28;20124;-84
2022/10/02 04:20:32;;;;;;;33.17;11.95;;;;;;;11.93;100.00;101215.56;1971908;28;20329;-84
2022/10/02 04:21:59;;;;;;;36.92;16.08;;;;;;;11.93;100.00;101215.56;1969906;28;20045;-83
2022/10/02 04:23:31;;;;;;;34.33;14.45;;;;;;;11.93;100.00;101213.81;1970954;28;20051;-84
2022/10/02 04:24:43;;;;;;;32.78;11.90;;;;;;;11.92;100.00;101219.09;1976219;28;20046;-84
2022/10/02 04:26:05;;;;;;;27.90;11.80;;;;;;;11.91;100.00;101217.41;1976389;28;20101;-82
2022/10/02 04:27:45;;;;;;;33.92;11.02;;;;;;;11.88;100.00;101222.75;1975675;28;20077;-84
2022/10/02 04:29:10;;;;;;;33.10;11.50;;;;;;;11.83;100.00;101215.97;1975708;28;20073;-83
2022/10/02 04:30:29;;;;;;;29.83;11.48;;;;;;;11.84;100.00;101222.88;1971055;28;20025;-84
2022/10/02 04:31:36;;;;;;;24.10;10.45;;;;;;;11.82;100.00;101219.50;1970130;28;20086;-84
2022/10/02 04:32:53;;;;;;;27.80;11.68;;;;;;;11.85;100.00;101224.56;1968929;28;20041;-83
2022/10/02 04:34:06;;;;;;;26.60;11.93;;;;;;;11.84;100.00;101216.81;1969338;28;20029;-82
2022/10/02 04:37:51;;;;;;;26.60;11.73;;;;;;;11.82;100.00;101229.97;1976392;28;20466;-84
2022/10/02 04:39:31;;;;;;;23.52;11.85;;;;;;;11.82;100.00;101222.13;1983797;28;20020;-85
2022/10/02 04:41:09;;;;;;;30.98;11.15;;;;;;;11.83;100.00;101226.44;1975417;28;20047;-87
2022/10/02 04:42:48;;;;;;;26.10;12.20;;;;;;;11.84;100.00;101222.88;1970288;28;20437;-84
2022/10/02 04:44:38;;;;;;;29.98;12.20;;;;;;;11.88;100.00;101217.53;1964582;28;20072;-83
2022/10/02 04:46:47;;;;;;;29.92;13.52;;;;;;;11.92;100.00;101233.03;1983447;28;20451;-83
2022/10/02 04:48:15;;;;;;;27.88;13.50;;;;;;;12.01;100.00;101234.41;1973902;28;20487;-84
2022/10/02 04:50:07;;;;;;;35.78;15.05;;;;;;;12.04;100.00;101243.91;1971304;28;20108;-83
2022/10/02 04:52:27;;;;;;;34.58;16.27;;;;;;;12.11;100.00;101240.13;1982421;28;20478;-86
2022/10/02 04:56:15;;;;;;;34.38;17.10;;;;;;;12.12;100.00;101246.22;1973223;28;20071;-85
2022/10/02 04:57:34;;;;;;;35.58;17.98;;;;;;;12.20;100.00;101249.34;1976153;28;20103;-82
2022/10/02 04:59:24;;;;;;;37.08;17.60;;;;;;;12.20;100.00;101255.44;1983759;28;20071;-82
2022/10/02 05:00:26;;;;;;;42.65;17.98;;;;;;;12.39;100.00;101253.78;1973349;28;20050;-81
2022/10/02 05:02:21;;;;;;;45.03;18.52;;;;;;;12.35;100.00;101256.53;1968632;28;20381;-82
2022/10/02 05:03:36;;;;;;;53.03;18.77;;;;;;;12.29;100.00;101254.22;1974977;28;20045;-84
2022/10/02 05:05:34;;;;;;;53.72;20.25;;;;;;;12.29;100.00;101254.22;1968413;28;20049;-83
2022/10/02 05:07:05;;;;;;;53.28;19.85;;;;;;;12.25;100.00;101257.84;1956236;28;20113;-83
2022/10/02 05:08:37;;;;;;;53.35;20.75;;;;;;;12.25;100.00;101257.00;1976869;28;20040;-83
2022/10/02 05:09:53;;;;;;;61.03;20.52;;;;;;;12.24;100.00;101256.16;1972617;28;20025;-84
2022/10/02 05:11:01;;;;;;;58.72;20.63;;;;;;;12.22;100.00;101258.00;1970974;28;20034;-83
2022/10/02 05:12:22;;;;;;;50.63;21.52;;;;;;;12.25;100.00;101257.00;1977068;28;20041;-83
2022/10/02 05:14:04;;;;;;;70.05;21.73;;;;;;;12.23;100.00;101251.84;1966721;28;20068;-82
2022/10/02 05:15:32;;;;;;;61.50;21.13;;;;;;;12.26;100.00;101254.34;1973572;28;20029;-83
2022/10/02 05:17:09;;;;;;;58.85;21.67;;;;;;;12.29;100.00;101248.97;1971640;28;20490;-86
2022/10/02 05:18:44;;;;;;;58.75;22.95;;;;;;;12.22;100.00;101248.38;1976402;28;20483;-87
2022/10/02 05:22:43;;;;;;;65.57;21.90;;;;;;;12.20;100.00;101252.81;1975769;28;20061;-83
2022/10/02 05:26:08;;;;;;;55.13;20.73;;;;;;;12.24;100.00;101256.16;1960248;28;20034;-84
2022/10/02 05:27:28;;;;;;;67.70;23.10;;;;;;;12.22;100.00;101258.00;1976362;28;20033;-84
2022/10/02 05:28:41;;;;;;;62.03;24.55;;;;;;;12.20;100.00;101251.97;1970641;28;20057;-83
2022/10/02 05:29:57;;;;;;;68.43;24.55;;;;;;;12.23;100.00;101264.94;1969988;28;20033;-84
2022/10/02 05:31:21;;;;;;;76.35;25.02;;;;;;;12.23;100.00;101264.94;1976603;28;20069;-82
2022/10/02 05:33:07;;;;;;;70.68;24.92;;;;;;;12.24;100.00;101266.63;1971468;28;20380;-84
2022/10/02 05:34:33;;;;;;;68.00;22.88;;;;;;;12.19;100.00;101266.84;1976647;28;20099;-82
2022/10/02 05:36:04;;;;;;;73.43;24.05;;;;;;;12.19;100.00;101268.59;1972052;28;20037;-84
2022/10/02 05:38:06;;;;;;;70.97;22.08;;;;;;;12.21;100.00;101271.97;1976740;28;20034;-83
2022/10/02 05:39:12;;;;;;;69.13;21.83;;;;;;;12.18;100.00;101272.13;1961533;28;20076;-82
2022/10/02 05:40:23;;;;;;;77.85;22.40;;;;;;;12.19;100.00;101281.66;1984350;28;20337;-83
2022/10/02 05:42:03;;;;;;;71.53;20.98;;;;;;;12.27;100.00;101274.34;1975484;28;20540;-82
2022/10/02 05:43:09;;;;;;;68.28;20.30;;;;;;;12.25;100.00;101280.56;1976679;28;20450;-83
2022/10/02 05:44:18;;;;;;;72.95;21.10;;;;;;;12.25;100.00;101275.34;1983162;28;20134;-83
2022/10/02 05:45:36;;;;;;;77.68;20.98;;;;;;;12.26;100.00;101280.50;1981626;28;20032;-82
2022/10/02 05:46:44;;;;;;;69.85;19.70;;;;;;;12.26;100.00;101282.25;1976392;28;20048;-84
2022/10/02 05:47:45;;;;;;;76.78;20.02;;;;;;;12.28;100.00;101278.66;1984126;28;20139;-83
2022/10/02 05:48:56;;;;;;;60.92;19.02;;;;;;;12.28;100.00;101278.66;1985236;28;20039;-82
2022/10/02 05:50:19;;;;;;;87.70;20.13;;;;;;;12.26;100.00;101277.88;1985065;28;20068;-83
2022/10/02 05:51:44;;;;;;;68.40;18.75;;;;;;;12.26;100.00;101279.63;1977444;28;20525;-83
2022/10/02 05:52:56;;;;;;;62.28;16.65;;;;;;;12.29;100.00;101276.91;1979376;28;20111;-82
2022/10/02 05:54:13;;;;;;;70.38;16.73;;;;;;;12.28;100.00;101273.41;1985382;28;20035;-82
2022/10/02 05:55:51;;;;;;;65.82;15.38;;;;;;;12.35;100.00;101274.00;1990195;28;20033;-84
2022/10/02 05:57:12;;;;;;;67.55;15.13;;;;;;;12.34;100.00;101282.78;1984164;28;20125;-82
2022/10/02 05:58:32;;;;;;;59.58;14.30;;;;;;;12.38;100.00;101279.09;1978816;28;20038;-82
2022/10/02 05:59:53;;;;;;;63.30;14.20;;;;;;;12.38;100.00;101283.50;1978405;28;20047;-82
2022/10/02 06:01:17;;;;;;;68.28;13.95;;;;;;;12.38;100.00;101278.28;1984387;28;20370;-84
2022/10/02 06:02:43;;;;;;;55.00;13.45;;;;;;;12.42;100.00;101279.84;1984508;28;20037;-82
2022/10/02 06:03:56;;;;;;;63.45;11.57;;;;;;;12.44;100.00;101281.47;1970891;28;20052;-81
2022/10/02 06:05:06;;;;;;;58.80;11.60;;;;;;;12.46;100.00;101281.41;1976255;28;20041;-84
2022/10/02 06:06:22;;;;;;;64.97;11.90;;;;;;;12.44;100.00;101283.22;1969762;28;20026;-83
2022/10/02 06:07:20;;;;;;;53.67;12.13;;;;;;;12.43;100.00;101282.41;1976368;28;20029;-82
2022/10/02 06:08:31;;;;;;;63.63;12.82;;;;;;;12.46;100.00;101281.41;1976579;28;20128;-83
2022/10/02 06:09:48;;;;;;;63.42;12.88;;;;;;;12.48;100.00;101279.56;1983398;28;20360;-85
2022/10/02 06:10:59;;;;;;;62.50;11.65;;;;;;;12.47;100.00;101272.63;1976658;28;20029;-84